sensor_id;sensor_type;location;lat;lon;timestamp;P1;durP1;ratioP1;P2;durP2;ratioP2
54917;SDS011;40818;50.562;7.454;2022-10-16T00:01:27;3.13;;;0.20;;
54917;SDS011;40818;50.562;7.454;2022-10-16T00:06:34;1.35;;;0.40;;
54917;SDS011;40818;50.562;7.454;2022-10-16T00:11:38;4.22;;;0.22;;
54917;SDS011;40818;50.562;7.454;2022-10-16T00:16:42;10.57;;;0.68;;
54917;SDS011;40818;50.562;7.454;2022-10-16T00:21:49;2.55;;;0.50;;
54917;SDS011;40818;50.562;7.454;2022-10-16T00:26:52;1.95;;;0.60;;
54917;SDS011;40818;50.562;7.454;2022-10-16T00:31:55;1.05;;;0.50;;
54917;SDS011;40818;50.562;7.454;2022-10-16T00:37:02;1.40;;;0.50;;
54917;SDS011;40818;50.562;7.454;2022-10-16T00:42:06;1.20;;;0.40;;
54917;SDS011;40818;50.562;7.454;2022-10-16T00:47:09;2.55;;;0.30;;
54917;SDS011;40818;50.562;7.454;2022-10-16T00:52:18;2.17;;;0.40;;
54917;SDS011;40818;50.562;7.454;2022-10-16T00:57:22;1.08;;;0.30;;
54917;SDS011;40818;50.562;7.454;2022-10-16T01:02:26;3.72;;;0.30;;
54917;SDS011;40818;50.562;7.454;2022-10-16T01:07:34;5.35;;;0.35;;
54917;SDS011;40818;50.562;7.454;2022-10-16T01:12:49;1.58;;;0.30;;
54917;SDS011;40818;50.562;7.454;2022-10-16T01:17:58;2.97;;;0.40;;
54917;SDS011;40818;50.562;7.454;2022-10-16T01:23:15;2.72;;;0.30;;
54917;SDS011;40818;50.562;7.454;2022-10-16T01:28:32;4.00;;;0.40;;
54917;SDS011;40818;50.562;7.454;2022-10-16T01:38:46;3.03;;;0.40;;
54917;SDS011;40818;50.562;7.454;2022-10-16T01:43:56;2.60;;;0.30;;
54917;SDS011;40818;50.562;7.454;2022-10-16T01:49:04;2.92;;;0.20;;
54917;SDS011;40818;50.562;7.454;2022-10-16T01:54:11;1.38;;;0.30;;
54917;SDS011;40818;50.562;7.454;2022-10-16T01:59:20;1.13;;;0.30;;
54917;SDS011;40818;50.562;7.454;2022-10-16T02:04:28;0.98;;;0.30;;
54917;SDS011;40818;50.562;7.454;2022-10-16T02:09:34;3.42;;;0.40;;
54917;SDS011;40818;50.562;7.454;2022-10-16T02:14:41;3.53;;;0.40;;
54917;SDS011;40818;50.562;7.454;2022-10-16T02:19:45;1.02;;;0.35;;
54917;SDS011;40818;50.562;7.454;2022-10-16T02:24:51;0.90;;;0.40;;
54917;SDS011;40818;50.562;7.454;2022-10-16T02:30:03;0.90;;;0.40;;
54917;SDS011;40818;50.562;7.454;2022-10-16T02:40:15;0.77;;;0.30;;
54917;SDS011;40818;50.562;7.454;2022-10-16T02:45:24;2.38;;;0.63;;
54917;SDS011;40818;50.562;7.454;2022-10-16T02:50:27;6.30;;;0.22;;
54917;SDS011;40818;50.562;7.454;2022-10-16T02:55:31;2.55;;;0.28;;
54917;SDS011;40818;50.562;7.454;2022-10-16T03:00:37;1.48;;;0.20;;
54917;SDS011;40818;50.562;7.454;2022-10-16T03:05:40;3.33;;;0.35;;
54917;SDS011;40818;50.562;7.454;2022-10-16T03:10:46;2.83;;;0.22;;
54917;SDS011;40818;50.562;7.454;2022-10-16T03:15:52;3.38;;;0.20;;
54917;SDS011;40818;50.562;7.454;2022-10-16T03:20:55;2.78;;;0.30;;
54917;SDS011;40818;50.562;7.454;2022-10-16T03:25:59;2.25;;;0.20;;
54917;SDS011;40818;50.562;7.454;2022-10-16T03:31:05;1.25;;;0.30;;
54917;SDS011;40818;50.562;7.454;2022-10-16T03:36:08;1.38;;;0.22;;
54917;SDS011;40818;50.562;7.454;2022-10-16T03:41:12;3.25;;;0.20;;
54917;SDS011;40818;50.562;7.454;2022-10-16T03:46:18;1.58;;;0.30;;
54917;SDS011;40818;50.562;7.454;2022-10-16T03:51:21;2.83;;;0.20;;
54917;SDS011;40818;50.562;7.454;2022-10-16T03:56:25;1.23;;;0.20;;
54917;SDS011;40818;50.562;7.454;2022-10-16T04:01:31;4.90;;;0.47;;
54917;SDS011;40818;50.562;7.454;2022-10-16T04:06:34;1.70;;;0.30;;
54917;SDS011;40818;50.562;7.454;2022-10-16T04:11:38;1.63;;;0.40;;
54917;SDS011;40818;50.562;7.454;2022-10-16T04:16:44;2.22;;;0.40;;
54917;SDS011;40818;50.562;7.454;2022-10-16T04:21:47;3.80;;;0.30;;
54917;SDS011;40818;50.562;7.454;2022-10-16T04:26:51;1.60;;;0.30;;
54917;SDS011;40818;50.562;7.454;2022-10-16T04:31:57;1.25;;;0.40;;
54917;SDS011;40818;50.562;7.454;2022-10-16T04:37:00;5.00;;;0.60;;
54917;SDS011;40818;50.562;7.454;2022-10-16T04:42:04;3.45;;;0.55;;
54917;SDS011;40818;50.562;7.454;2022-10-16T04:47:10;2.00;;;0.60;;
54917;SDS011;40818;50.562;7.454;2022-10-16T04:52:13;29.15;;;0.73;;
54917;SDS011;40818;50.562;7.454;2022-10-16T04:57:17;1.10;;;0.32;;
54917;SDS011;40818;50.562;7.454;2022-10-16T05:02:23;3.13;;;0.30;;
54917;SDS011;40818;50.562;7.454;2022-10-16T05:07:27;0.80;;;0.30;;
54917;SDS011;40818;50.562;7.454;2022-10-16T05:12:30;4.93;;;0.30;;
54917;SDS011;40818;50.562;7.454;2022-10-16T05:17:37;2.20;;;0.30;;
54917;SDS011;40818;50.562;7.454;2022-10-16T05:22:40;0.98;;;0.20;;
54917;SDS011;40818;50.562;7.454;2022-10-16T05:27:46;0.95;;;0.20;;
54917;SDS011;40818;50.562;7.454;2022-10-16T05:32:53;5.93;;;0.30;;
54917;SDS011;40818;50.562;7.454;2022-10-16T05:37:57;0.75;;;0.30;;
54917;SDS011;40818;50.562;7.454;2022-10-16T05:43:00;1.10;;;0.25;;
54917;SDS011;40818;50.562;7.454;2022-10-16T05:48:06;2.40;;;0.20;;
54917;SDS011;40818;50.562;7.454;2022-10-16T05:53:10;3.95;;;0.30;;
54917;SDS011;40818;50.562;7.454;2022-10-16T05:58:13;1.95;;;0.20;;
54917;SDS011;40818;50.562;7.454;2022-10-16T06:03:19;3.33;;;0.20;;
54917;SDS011;40818;50.562;7.454;2022-10-16T06:08:23;1.52;;;0.10;;
54917;SDS011;40818;50.562;7.454;2022-10-16T06:13:26;0.57;;;0.20;;
54917;SDS011;40818;50.562;7.454;2022-10-16T06:18:32;1.55;;;0.15;;
54917;SDS011;40818;50.562;7.454;2022-10-16T06:23:36;1.75;;;0.10;;
54917;SDS011;40818;50.562;7.454;2022-10-16T06:28:39;1.17;;;0.10;;
54917;SDS011;40818;50.562;7.454;2022-10-16T06:33:49;1.38;;;0.10;;
54917;SDS011;40818;50.562;7.454;2022-10-16T06:38:54;0.75;;;0.10;;
54917;SDS011;40818;50.562;7.454;2022-10-16T06:43:57;0.98;;;0.00;;
54917;SDS011;40818;50.562;7.454;2022-10-16T06:49:03;0.55;;;0.10;;
54917;SDS011;40818;50.562;7.454;2022-10-16T06:54:07;2.53;;;0.10;;
54917;SDS011;40818;50.562;7.454;2022-10-16T06:59:10;0.17;;;0.00;;
54917;SDS011;40818;50.562;7.454;2022-10-16T07:04:16;6.28;;;0.15;;
54917;SDS011;40818;50.562;7.454;2022-10-16T07:09:20;0.50;;;0.15;;
54917;SDS011;40818;50.562;7.454;2022-10-16T07:14:24;1.33;;;0.10;;
54917;SDS011;40818;50.562;7.454;2022-10-16T07:19:30;1.30;;;0.10;;
54917;SDS011;40818;50.562;7.454;2022-10-16T07:24:33;1.63;;;0.10;;
54917;SDS011;40818;50.562;7.454;2022-10-16T07:29:37;0.43;;;0.10;;
54917;SDS011;40818;50.562;7.454;2022-10-16T07:34:46;1.10;;;0.10;;
54917;SDS011;40818;50.562;7.454;2022-10-16T07:39:49;1.95;;;0.20;;
54917;SDS011;40818;50.562;7.454;2022-10-16T07:44:53;2.03;;;0.17;;
54917;SDS011;40818;50.562;7.454;2022-10-16T07:49:59;2.20;;;0.10;;
54917;SDS011;40818;50.562;7.454;2022-10-16T07:55:03;1.17;;;0.10;;
54917;SDS011;40818;50.562;7.454;2022-10-16T08:00:07;1.85;;;0.10;;
54917;SDS011;40818;50.562;7.454;2022-10-16T08:05:16;6.13;;;0.20;;
54917;SDS011;40818;50.562;7.454;2022-10-16T08:10:20;2.58;;;0.30;;
54917;SDS011;40818;50.562;7.454;2022-10-16T08:15:25;3.22;;;0.15;;
54917;SDS011;40818;50.562;7.454;2022-10-16T08:20:31;0.55;;;0.10;;
54917;SDS011;40818;50.562;7.454;2022-10-16T08:25:35;1.38;;;0.10;;
54917;SDS011;40818;50.562;7.454;2022-10-16T08:30:40;1.25;;;0.10;;
54917;SDS011;40818;50.562;7.454;2022-10-16T08:35:52;1.83;;;0.10;;
54917;SDS011;40818;50.562;7.454;2022-10-16T08:40:57;0.90;;;0.10;;
54917;SDS011;40818;50.562;7.454;2022-10-16T08:46:25;2.22;;;0.10;;
54917;SDS011;40818;50.562;7.454;2022-10-16T08:51:43;0.47;;;0.10;;
54917;SDS011;40818;50.562;7.454;2022-10-16T08:56:49;0.60;;;0.10;;
54917;SDS011;40818;50.562;7.454;2022-10-16T09:01:53;1.40;;;0.10;;
54917;SDS011;40818;50.562;7.454;2022-10-16T09:06:59;2.08;;;0.10;;
54917;SDS011;40818;50.562;7.454;2022-10-16T09:12:09;0.40;;;0.10;;
54917;SDS011;40818;50.562;7.454;2022-10-16T09:22:44;0.43;;;0.08;;
54917;SDS011;40818;50.562;7.454;2022-10-16T09:27:48;1.40;;;0.10;;
54917;SDS011;40818;50.562;7.454;2022-10-16T09:32:57;6.35;;;0.10;;
54917;SDS011;40818;50.562;7.454;2022-10-16T09:38:04;0.10;;;0.00;;
54917;SDS011;40818;50.562;7.454;2022-10-16T09:43:14;0.47;;;0.10;;
54917;SDS011;40818;50.562;7.454;2022-10-16T09:48:23;0.88;;;0.10;;
54917;SDS011;40818;50.562;7.454;2022-10-16T09:53:42;0.90;;;0.10;;
54917;SDS011;40818;50.562;7.454;2022-10-16T09:58:49;0.85;;;0.10;;
54917;SDS011;40818;50.562;7.454;2022-10-16T10:03:55;1.42;;;0.20;;
54917;SDS011;40818;50.562;7.454;2022-10-16T10:09:14;5.18;;;0.10;;
54917;SDS011;40818;50.562;7.454;2022-10-16T10:14:27;1.15;;;0.20;;
54917;SDS011;40818;50.562;7.454;2022-10-16T10:19:39;0.32;;;0.10;;
54917;SDS011;40818;50.562;7.454;2022-10-16T10:25:00;0.63;;;0.20;;
54917;SDS011;40818;50.562;7.454;2022-10-16T10:30:17;0.52;;;0.10;;
54917;SDS011;40818;50.562;7.454;2022-10-16T10:35:27;0.50;;;0.10;;
54917;SDS011;40818;50.562;7.454;2022-10-16T10:40:43;2.05;;;0.10;;
54917;SDS011;40818;50.562;7.454;2022-10-16T10:45:54;3.72;;;0.17;;
54917;SDS011;40818;50.562;7.454;2022-10-16T10:51:05;3.50;;;0.10;;
54917;SDS011;40818;50.562;7.454;2022-10-16T10:56:22;0.63;;;0.10;;
54917;SDS011;40818;50.562;7.454;2022-10-16T11:01:44;1.73;;;0.08;;
54917;SDS011;40818;50.562;7.454;2022-10-16T11:06:55;1.13;;;0.10;;
54917;SDS011;40818;50.562;7.454;2022-10-16T11:12:05;0.63;;;0.00;;
54917;SDS011;40818;50.562;7.454;2022-10-16T11:17:15;0.80;;;0.10;;
54917;SDS011;40818;50.562;7.454;2022-10-16T11:22:26;1.13;;;0.10;;
54917;SDS011;40818;50.562;7.454;2022-10-16T11:27:39;1.75;;;0.10;;
54917;SDS011;40818;50.562;7.454;2022-10-16T11:32:50;2.05;;;0.10;;
54917;SDS011;40818;50.562;7.454;2022-10-16T11:38:03;1.38;;;0.10;;
54917;SDS011;40818;50.562;7.454;2022-10-16T11:43:17;2.50;;;0.13;;
54917;SDS011;40818;50.562;7.454;2022-10-16T11:53:39;1.10;;;0.10;;
54917;SDS011;40818;50.562;7.454;2022-10-16T11:58:56;0.90;;;0.10;;
54917;SDS011;40818;50.562;7.454;2022-10-16T12:04:11;1.30;;;0.05;;
54917;SDS011;40818;50.562;7.454;2022-10-16T12:09:22;0.57;;;0.10;;
54917;SDS011;40818;50.562;7.454;2022-10-16T12:14:40;0.68;;;0.10;;
54917;SDS011;40818;50.562;7.454;2022-10-16T12:19:44;2.38;;;0.10;;
54917;SDS011;40818;50.562;7.454;2022-10-16T12:24:50;2.70;;;0.03;;
54917;SDS011;40818;50.562;7.454;2022-10-16T12:29:57;0.70;;;0.10;;
54917;SDS011;40818;50.562;7.454;2022-10-16T12:35:03;5.82;;;0.10;;
54917;SDS011;40818;50.562;7.454;2022-10-16T12:40:12;0.50;;;0.10;;
54917;SDS011;40818;50.562;7.454;2022-10-16T12:45:27;0.50;;;0.10;;
54917;SDS011;40818;50.562;7.454;2022-10-16T12:50:33;0.43;;;0.00;;
54917;SDS011;40818;50.562;7.454;2022-10-16T12:55:43;2.05;;;0.00;;
54917;SDS011;40818;50.562;7.454;2022-10-16T13:01:01;6.32;;;0.00;;
54917;SDS011;40818;50.562;7.454;2022-10-16T13:06:14;0.30;;;0.00;;
54917;SDS011;40818;50.562;7.454;2022-10-16T13:11:27;1.70;;;0.00;;
54917;SDS011;40818;50.562;7.454;2022-10-16T13:16:45;2.85;;;0.10;;
54917;SDS011;40818;50.562;7.454;2022-10-16T13:21:59;0.32;;;0.00;;
54917;SDS011;40818;50.562;7.454;2022-10-16T13:27:09;0.30;;;0.10;;
54917;SDS011;40818;50.562;7.454;2022-10-16T13:32:22;3.60;;;0.10;;
54917;SDS011;40818;50.562;7.454;2022-10-16T13:37:26;0.50;;;0.00;;
54917;SDS011;40818;50.562;7.454;2022-10-16T13:42:29;2.40;;;0.10;;
54917;SDS011;40818;50.562;7.454;2022-10-16T13:47:36;1.48;;;0.00;;
54917;SDS011;40818;50.562;7.454;2022-10-16T13:52:39;0.17;;;0.00;;
54917;SDS011;40818;50.562;7.454;2022-10-16T13:57:43;0.03;;;0.00;;
54917;SDS011;40818;50.562;7.454;2022-10-16T14:02:53;0.73;;;0.00;;
54917;SDS011;40818;50.562;7.454;2022-10-16T14:08:01;0.90;;;0.00;;
54917;SDS011;40818;50.562;7.454;2022-10-16T14:13:05;0.30;;;0.00;;
54917;SDS011;40818;50.562;7.454;2022-10-16T14:18:15;1.85;;;0.00;;
54917;SDS011;40818;50.562;7.454;2022-10-16T14:23:23;1.33;;;0.00;;
54917;SDS011;40818;50.562;7.454;2022-10-16T14:28:32;1.02;;;0.00;;
54917;SDS011;40818;50.562;7.454;2022-10-16T14:33:38;0.47;;;0.00;;
54917;SDS011;40818;50.562;7.454;2022-10-16T14:38:42;0.13;;;0.00;;
54917;SDS011;40818;50.562;7.454;2022-10-16T14:43:52;1.40;;;0.07;;
54917;SDS011;40818;50.562;7.454;2022-10-16T14:49:01;1.08;;;0.00;;
54917;SDS011;40818;50.562;7.454;2022-10-16T14:54:08;1.00;;;0.00;;
54917;SDS011;40818;50.562;7.454;2022-10-16T14:59:13;0.50;;;0.00;;
54917;SDS011;40818;50.562;7.454;2022-10-16T15:04:23;0.10;;;0.00;;
54917;SDS011;40818;50.562;7.454;2022-10-16T15:09:26;0.30;;;0.00;;
54917;SDS011;40818;50.562;7.454;2022-10-16T15:14:30;2.60;;;0.10;;
54917;SDS011;40818;50.562;7.454;2022-10-16T15:19:36;10.55;;;0.10;;
54917;SDS011;40818;50.562;7.454;2022-10-16T15:24:39;2.08;;;0.00;;
54917;SDS011;40818;50.562;7.454;2022-10-16T15:29:43;1.00;;;0.00;;
54917;SDS011;40818;50.562;7.454;2022-10-16T15:34:49;1.25;;;0.00;;
54917;SDS011;40818;50.562;7.454;2022-10-16T15:39:52;0.20;;;0.10;;
54917;SDS011;40818;50.562;7.454;2022-10-16T15:44:56;0.40;;;0.10;;
54917;SDS011;40818;50.562;7.454;2022-10-16T15:50:02;0.85;;;0.10;;
54917;SDS011;40818;50.562;7.454;2022-10-16T15:55:07;2.13;;;0.10;;
54917;SDS011;40818;50.562;7.454;2022-10-16T16:00:13;1.33;;;0.10;;
54917;SDS011;40818;50.562;7.454;2022-10-16T16:05:20;0.17;;;0.08;;
54917;SDS011;40818;50.562;7.454;2022-10-16T16:10:24;1.67;;;0.10;;
54917;SDS011;40818;50.562;7.454;2022-10-16T16:15:28;0.50;;;0.10;;
54917;SDS011;40818;50.562;7.454;2022-10-16T16:20:34;1.38;;;0.10;;
54917;SDS011;40818;50.562;7.454;2022-10-16T16:25:37;0.55;;;0.10;;
54917;SDS011;40818;50.562;7.454;2022-10-16T16:30:41;1.30;;;0.10;;
54917;SDS011;40818;50.562;7.454;2022-10-16T16:35:47;1.08;;;0.10;;
54917;SDS011;40818;50.562;7.454;2022-10-16T16:40:50;0.60;;;0.10;;
54917;SDS011;40818;50.562;7.454;2022-10-16T16:45:54;3.10;;;0.10;;
54917;SDS011;40818;50.562;7.454;2022-10-16T16:51:04;2.63;;;0.17;;
54917;SDS011;40818;50.562;7.454;2022-10-16T16:56:08;0.63;;;0.10;;
54917;SDS011;40818;50.562;7.454;2022-10-16T17:01:11;1.65;;;0.20;;
54917;SDS011;40818;50.562;7.454;2022-10-16T17:06:19;1.02;;;0.10;;
54917;SDS011;40818;50.562;7.454;2022-10-16T17:11:25;3.33;;;0.22;;
54917;SDS011;40818;50.562;7.454;2022-10-16T17:16:30;0.30;;;0.10;;
54917;SDS011;40818;50.562;7.454;2022-10-16T17:21:38;5.90;;;0.10;;
54917;SDS011;40818;50.562;7.454;2022-10-16T17:26:41;0.80;;;0.20;;
54917;SDS011;40818;50.562;7.454;2022-10-16T17:31:48;1.20;;;0.20;;
54917;SDS011;40818;50.562;7.454;2022-10-16T17:36:54;0.60;;;0.20;;
54917;SDS011;40818;50.562;7.454;2022-10-16T17:41:58;4.03;;;0.20;;
54917;SDS011;40818;50.562;7.454;2022-10-16T17:47:01;2.70;;;0.20;;
54917;SDS011;40818;50.562;7.454;2022-10-16T17:52:09;5.63;;;0.30;;
54917;SDS011;40818;50.562;7.454;2022-10-16T17:57:13;3.78;;;0.40;;
54917;SDS011;40818;50.562;7.454;2022-10-16T18:02:17;1.13;;;0.43;;
54917;SDS011;40818;50.562;7.454;2022-10-16T18:07:23;2.28;;;0.50;;
54917;SDS011;40818;50.562;7.454;2022-10-16T18:12:26;1.88;;;0.50;;
54917;SDS011;40818;50.562;7.454;2022-10-16T18:17:30;3.25;;;0.50;;
54917;SDS011;40818;50.562;7.454;2022-10-16T18:22:39;2.63;;;0.60;;
54917;SDS011;40818;50.562;7.454;2022-10-16T18:27:42;2.10;;;0.50;;
54917;SDS011;40818;50.562;7.454;2022-10-16T18:32:46;6.57;;;0.55;;
54917;SDS011;40818;50.562;7.454;2022-10-16T18:37:52;4.85;;;0.60;;
54917;SDS011;40818;50.562;7.454;2022-10-16T18:42:59;3.55;;;0.75;;
54917;SDS011;40818;50.562;7.454;2022-10-16T18:48:03;3.95;;;0.50;;
54917;SDS011;40818;50.562;7.454;2022-10-16T18:53:10;2.63;;;0.60;;
54917;SDS011;40818;50.562;7.454;2022-10-16T18:58:14;5.65;;;0.70;;
54917;SDS011;40818;50.562;7.454;2022-10-16T19:03:17;3.88;;;0.70;;
54917;SDS011;40818;50.562;7.454;2022-10-16T19:08:23;5.90;;;0.80;;
54917;SDS011;40818;50.562;7.454;2022-10-16T19:13:27;5.05;;;0.82;;
54917;SDS011;40818;50.562;7.454;2022-10-16T19:18:31;5.28;;;1.10;;
54917;SDS011;40818;50.562;7.454;2022-10-16T19:23:40;4.70;;;1.15;;
54917;SDS011;40818;50.562;7.454;2022-10-16T19:28:44;4.10;;;1.08;;
54917;SDS011;40818;50.562;7.454;2022-10-16T19:33:50;3.97;;;1.35;;
54917;SDS011;40818;50.562;7.454;2022-10-16T19:38:56;10.57;;;1.23;;
54917;SDS011;40818;50.562;7.454;2022-10-16T19:44:02;5.82;;;1.05;;
54917;SDS011;40818;50.562;7.454;2022-10-16T19:49:08;2.70;;;1.10;;
54917;SDS011;40818;50.562;7.454;2022-10-16T19:54:15;6.78;;;1.20;;
54917;SDS011;40818;50.562;7.454;2022-10-16T19:59:19;4.97;;;1.13;;
54917;SDS011;40818;50.562;7.454;2022-10-16T20:04:22;6.65;;;1.20;;
54917;SDS011;40818;50.562;7.454;2022-10-16T20:09:28;11.15;;;1.40;;
54917;SDS011;40818;50.562;7.454;2022-10-16T20:14:32;7.03;;;1.17;;
54917;SDS011;40818;50.562;7.454;2022-10-16T20:19:36;3.05;;;1.23;;
54917;SDS011;40818;50.562;7.454;2022-10-16T20:24:42;4.47;;;1.30;;
54917;SDS011;40818;50.562;7.454;2022-10-16T20:29:46;4.45;;;1.27;;
54917;SDS011;40818;50.562;7.454;2022-10-16T20:34:49;3.90;;;1.27;;
54917;SDS011;40818;50.562;7.454;2022-10-16T20:39:55;3.70;;;1.20;;
54917;SDS011;40818;50.562;7.454;2022-10-16T20:44:59;10.25;;;1.30;;
54917;SDS011;40818;50.562;7.454;2022-10-16T20:50:02;11.32;;;1.80;;
54917;SDS011;40818;50.562;7.454;2022-10-16T20:55:09;8.45;;;1.30;;
54917;SDS011;40818;50.562;7.454;2022-10-16T21:00:15;3.35;;;1.02;;
54917;SDS011;40818;50.562;7.454;2022-10-16T21:05:19;2.60;;;1.05;;
54917;SDS011;40818;50.562;7.454;2022-10-16T21:10:25;5.30;;;1.08;;
54917;SDS011;40818;50.562;7.454;2022-10-16T21:15:28;7.18;;;1.05;;
54917;SDS011;40818;50.562;7.454;2022-10-16T21:20:32;4.93;;;1.20;;
54917;SDS011;40818;50.562;7.454;2022-10-16T21:25:38;6.03;;;1.20;;
54917;SDS011;40818;50.562;7.454;2022-10-16T21:30:41;5.97;;;1.17;;
54917;SDS011;40818;50.562;7.454;2022-10-16T21:35:45;4.93;;;1.10;;
54917;SDS011;40818;50.562;7.454;2022-10-16T21:40:51;4.22;;;1.10;;
54917;SDS011;40818;50.562;7.454;2022-10-16T21:45:54;6.38;;;1.00;;
54917;SDS011;40818;50.562;7.454;2022-10-16T21:50:58;4.18;;;0.80;;
54917;SDS011;40818;50.562;7.454;2022-10-16T21:56:04;2.70;;;0.93;;
54917;SDS011;40818;50.562;7.454;2022-10-16T22:01:15;5.97;;;1.00;;
54917;SDS011;40818;50.562;7.454;2022-10-16T22:06:21;4.88;;;0.90;;
54917;SDS011;40818;50.562;7.454;2022-10-16T22:11:30;5.32;;;1.00;;
54917;SDS011;40818;50.562;7.454;2022-10-16T22:16:36;3.10;;;0.85;;
54917;SDS011;40818;50.562;7.454;2022-10-16T22:21:41;5.07;;;0.93;;
54917;SDS011;40818;50.562;7.454;2022-10-16T22:26:49;3.75;;;0.80;;
54917;SDS011;40818;50.562;7.454;2022-10-16T22:31:52;2.42;;;0.80;;
54917;SDS011;40818;50.562;7.454;2022-10-16T22:36:55;2.53;;;0.80;;
54917;SDS011;40818;50.562;7.454;2022-10-16T22:42:01;5.20;;;0.90;;
54917;SDS011;40818;50.562;7.454;2022-10-16T22:47:05;3.30;;;0.80;;
54917;SDS011;40818;50.562;7.454;2022-10-16T22:52:08;3.05;;;0.75;;
54917;SDS011;40818;50.562;7.454;2022-10-16T22:57:15;4.82;;;1.10;;
54917;SDS011;40818;50.562;7.454;2022-10-16T23:02:18;3.97;;;0.77;;
54917;SDS011;40818;50.562;7.454;2022-10-16T23:07:22;2.78;;;0.70;;
54917;SDS011;40818;50.562;7.454;2022-10-16T23:12:28;1.80;;;0.77;;
54917;SDS011;40818;50.562;7.454;2022-10-16T23:17:31;2.08;;;0.70;;
54917;SDS011;40818;50.562;7.454;2022-10-16T23:22:34;4.50;;;0.75;;
54917;SDS011;40818;50.562;7.454;2022-10-16T23:27:40;2.10;;;0.60;;
54917;SDS011;40818;50.562;7.454;2022-10-16T23:32:44;3.38;;;0.80;;
54917;SDS011;40818;50.562;7.454;2022-10-16T23:37:47;3.33;;;0.70;;
54917;SDS011;40818;50.562;7.454;2022-10-16T23:42:53;3.70;;;0.70;;
54917;SDS011;40818;50.562;7.454;2022-10-16T23:47:57;6.88;;;0.93;;
54917;SDS011;40818;50.562;7.454;2022-10-16T23:53:00;3.33;;;0.70;;
54917;SDS011;40818;50.562;7.454;2022-10-16T23:58:06;7.80;;;0.75;;
